Time;durP1;ratioP1;P1;durP2;ratioP2;P2;SDS_P1;SDS_P2;PMS_P1;PMS_P2;Temp;Humidity;BMP_temperature;BMP_pressure;BME280_temperature;BME280_humidity;BME280_pressure;Samples;Min_cycle;Max_cycle;Signal;HPM_P1;HPM_P2
2023/04/24 00:00:58;;;;;;;1.93;1.13;;;11.90;80.80;;;;;;5049841;28;20418;-74
2023/04/24 00:03:24;;;;;;;2.43;1.23;;;11.90;80.80;;;;;;5031848;28;20561;-72
2023/04/24 00:05:50;;;;;;;2.13;1.30;;;11.90;80.50;;;;;;5049591;28;20439;-74
2023/04/24 00:08:16;;;;;;;2.83;1.43;;;11.90;80.50;;;;;;5049361;28;20492;-76
2023/04/24 00:10:42;;;;;;;2.23;1.20;;;11.90;80.80;;;;;;5051620;28;20471;-75
2023/04/24 00:13:08;;;;;;;1.57;1.10;;;11.90;80.80;;;;;;5053971;28;20430;-73
2023/04/24 00:15:33;;;;;;;2.90;1.40;;;11.90;80.50;;;;;;5056455;28;20187;-74
2023/04/24 00:18:01;;;;;;;2.50;1.33;;;11.90;80.60;;;;;;5037103;28;20221;-73
2023/04/24 00:20:28;;;;;;;2.27;1.30;;;11.90;80.60;;;;;;5034805;28;20185;-74
2023/04/24 00:22:53;;;;;;;2.47;1.30;;;11.80;80.60;;;;;;5054906;28;20434;-74
2023/04/24 00:25:19;;;;;;;3.20;1.07;;;11.90;80.30;;;;;;5054733;28;20435;-74
2023/04/24 00:27:44;;;;;;;2.20;1.33;;;11.90;80.50;;;;;;5055317;28;20228;-74
2023/04/24 00:30:10;;;;;;;1.50;1.00;;;11.90;80.30;;;;;;5043010;28;20212;-75
2023/04/24 00:32:36;;;;;;;1.30;1.00;;;11.90;80.00;;;;;;5054070;28;20195;-76
2023/04/24 00:35:01;;;;;;;1.50;1.17;;;12.00;79.60;;;;;;5060646;28;20457;-75
2023/04/24 00:37:27;;;;;;;1.87;1.07;;;12.00;79.30;;;;;;5052787;28;20217;-75
2023/04/24 00:39:52;;;;;;;2.70;1.17;;;12.00;79.00;;;;;;5061825;28;20184;-72
2023/04/24 00:42:18;;;;;;;4.80;1.40;;;12.10;78.90;;;;;;5062850;28;20187;-76
2023/04/24 00:44:44;;;;;;;1.73;1.10;;;12.10;78.90;;;;;;5061804;28;20216;-73
2023/04/24 00:47:11;;;;;;;3.40;1.17;;;12.10;78.90;;;;;;5059471;28;20231;-74
2023/04/24 00:49:37;;;;;;;1.93;1.20;;;12.10;78.70;;;;;;5061183;28;20449;-76
2023/04/24 00:52:07;;;;;;;1.90;1.10;;;12.20;78.60;;;;;;5061580;28;20470;-75
2023/04/24 00:54:33;;;;;;;4.50;1.30;;;12.20;78.00;;;;;;5061357;28;20244;-73
2023/04/24 00:56:58;;;;;;;2.77;1.27;;;12.20;77.60;;;;;;5054693;28;21026;-75
2023/04/24 00:59:24;;;;;;;6.50;1.30;;;12.30;77.60;;;;;;5038510;28;20271;-75
2023/04/24 01:01:51;;;;;;;3.20;1.10;;;12.20;77.60;;;;;;5056377;28;20674;-74
2023/04/24 01:04:17;;;;;;;1.40;1.00;;;12.20;77.30;;;;;;5053851;28;20302;-75
2023/04/24 01:06:45;;;;;;;1.70;1.20;;;12.20;77.40;;;;;;5053540;28;20870;-76
2023/04/24 01:09:11;;;;;;;3.10;1.20;;;12.30;77.30;;;;;;5051430;28;20435;-75
2023/04/24 01:11:37;;;;;;;1.50;1.17;;;12.30;77.00;;;;;;5052148;28;20471;-75
2023/04/24 01:14:03;;;;;;;1.47;1.20;;;12.30;77.10;;;;;;5055988;28;20442;-74
2023/04/24 01:16:29;;;;;;;3.97;1.40;;;12.30;77.00;;;;;;5053886;28;20435;-74
2023/04/24 01:18:54;;;;;;;4.03;1.20;;;12.30;77.10;;;;;;5038968;28;20706;-73
2023/04/24 01:21:21;;;;;;;1.87;0.90;;;12.30;77.10;;;;;;5058160;28;20181;-74
2023/04/24 01:23:47;;;;;;;4.00;1.50;;;12.30;77.30;;;;;;5051922;28;20271;-75
2023/04/24 01:26:15;;;;;;;1.73;1.17;;;12.30;77.40;;;;;;5060419;28;20447;-75
2023/04/24 01:28:40;;;;;;;2.63;1.33;;;12.20;77.60;;;;;;5056274;28;20216;-75
2023/04/24 01:31:06;;;;;;;4.43;1.40;;;12.20;77.80;;;;;;5053773;28;21050;-73
2023/04/24 01:33:33;;;;;;;2.10;1.40;;;12.20;78.30;;;;;;5054003;28;20498;-75
2023/04/24 01:35:59;;;;;;;3.93;1.40;;;12.20;78.90;;;;;;5030872;28;20511;-73
2023/04/24 01:38:25;;;;;;;2.23;1.30;;;12.10;79.70;;;;;;5051448;28;20470;-75
2023/04/24 01:40:51;;;;;;;2.33;1.07;;;12.00;80.30;;;;;;5053723;28;20849;-74
2023/04/24 01:43:17;;;;;;;4.83;1.73;;;11.90;80.90;;;;;;5053307;28;20462;-74
2023/04/24 01:45:43;;;;;;;3.33;1.23;;;11.90;81.40;;;;;;5052777;28;20816;-73
2023/04/24 01:48:09;;;;;;;3.17;1.30;;;11.90;81.20;;;;;;5052758;28;20461;-74
2023/04/24 01:50:35;;;;;;;2.20;1.20;;;11.90;81.20;;;;;;5052934;28;20212;-74
2023/04/24 01:53:00;;;;;;;2.90;1.47;;;11.80;81.10;;;;;;5054398;28;20189;-73
2023/04/24 01:55:26;;;;;;;1.70;1.20;;;11.90;81.10;;;;;;5051664;28;20271;-75
2023/04/24 01:57:56;;;;;;;5.07;1.40;;;11.80;80.90;;;;;;5048461;28;20266;-74
2023/04/24 02:00:22;;;;;;;1.37;1.27;;;11.80;81.20;;;;;;5053963;28;20238;-75
2023/04/24 02:02:47;;;;;;;7.73;1.50;;;11.80;81.10;;;;;;5052356;28;20423;-74
2023/04/24 02:05:13;;;;;;;2.70;1.10;;;11.80;81.20;;;;;;5051020;28;20242;-75
2023/04/24 02:07:39;;;;;;;1.17;1.03;;;11.80;81.40;;;;;;5033362;28;20299;-73
2023/04/24 02:10:05;;;;;;;2.50;1.27;;;11.80;81.40;;;;;;5053066;28;20215;-73
2023/04/24 02:12:31;;;;;;;2.03;1.20;;;11.80;81.40;;;;;;5033054;28;20865;-72
2023/04/24 02:14:57;;;;;;;1.60;1.00;;;11.80;81.20;;;;;;5049914;28;20570;-74
2023/04/24 02:17:22;;;;;;;3.73;1.40;;;11.80;81.10;;;;;;5034414;28;20522;-74
2023/04/24 02:19:48;;;;;;;1.53;1.20;;;11.80;81.10;;;;;;5036755;28;20230;-75
2023/04/24 02:22:14;;;;;;;2.77;1.33;;;11.80;80.90;;;;;;5054623;28;20185;-74
2023/04/24 02:24:39;;;;;;;7.90;1.40;;;11.80;80.90;;;;;;5036081;28;21011;-75
2023/04/24 02:27:05;;;;;;;2.23;1.33;;;11.80;81.10;;;;;;5051069;28;20695;-74
2023/04/24 02:29:31;;;;;;;3.50;1.40;;;11.90;80.90;;;;;;5050834;28;20687;-73
2023/04/24 02:31:57;;;;;;;2.40;1.27;;;11.80;80.90;;;;;;5040618;28;20212;-74
2023/04/24 02:34:23;;;;;;;3.57;1.10;;;11.80;80.80;;;;;;5049832;28;20418;-75
2023/04/24 02:36:48;;;;;;;1.70;1.20;;;11.80;80.60;;;;;;5054294;28;20238;-75
2023/04/24 02:39:16;;;;;;;2.70;1.30;;;11.80;80.60;;;;;;5056607;28;20208;-76
2023/04/24 02:41:42;;;;;;;2.13;1.07;;;11.80;80.90;;;;;;5052239;28;20193;-74
2023/04/24 02:44:08;;;;;;;2.27;1.30;;;11.80;81.10;;;;;;5061624;28;20437;-76
2023/04/24 02:46:33;;;;;;;1.87;1.10;;;11.80;81.20;;;;;;5071843;28;20422;-75
2023/04/24 02:48:59;;;;;;;2.50;1.37;;;11.90;81.90;;;;;;5066880;28;20208;-75
2023/04/24 02:51:25;;;;;;;2.43;1.40;;;11.80;82.80;;;;;;5065237;28;20227;-73
2023/04/24 02:53:50;;;;;;;3.00;1.43;;;11.60;84.00;;;;;;5062322;28;20184;-73
2023/04/24 02:56:16;;;;;;;1.83;1.30;;;11.60;84.70;;;;;;5061862;28;20176;-74
2023/04/24 02:58:42;;;;;;;1.60;1.20;;;11.50;85.20;;;;;;5043059;28;20215;-73
2023/04/24 03:01:09;;;;;;;2.43;1.50;;;11.40;85.60;;;;;;5043330;28;20180;-75
2023/04/24 03:03:36;;;;;;;1.83;1.27;;;11.40;85.70;;;;;;5059787;28;20812;-73
2023/04/24 03:06:01;;;;;;;2.40;1.27;;;11.40;86.20;;;;;;5043257;28;20441;-75
2023/04/24 03:08:27;;;;;;;1.97;1.10;;;11.30;86.20;;;;;;5055074;28;20466;-76
2023/04/24 03:10:53;;;;;;;1.57;1.27;;;11.40;86.20;;;;;;5052752;28;20208;-73
2023/04/24 03:13:18;;;;;;;1.90;1.00;;;11.30;86.00;;;;;;5053240;28;20226;-73
2023/04/24 03:15:44;;;;;;;1.70;1.20;;;11.30;86.00;;;;;;5051271;28;20549;-74
2023/04/24 03:18:10;;;;;;;2.10;1.30;;;11.30;86.00;;;;;;5051024;28;20206;-74
2023/04/24 03:20:37;;;;;;;2.20;1.27;;;11.30;86.20;;;;;;5049943;28;20514;-74
2023/04/24 03:23:03;;;;;;;2.03;1.30;;;11.20;86.20;;;;;;5051234;28;20184;-74
2023/04/24 03:25:28;;;;;;;2.83;1.17;;;11.20;86.00;;;;;;5049597;28;20415;-75
2023/04/24 03:27:54;;;;;;;3.50;1.30;;;11.20;86.30;;;;;;5047276;28;20204;-76
2023/04/24 03:30:20;;;;;;;3.07;1.43;;;11.10;86.60;;;;;;5051168;28;20269;-74
2023/04/24 03:32:45;;;;;;;1.70;1.20;;;11.10;86.80;;;;;;5027948;28;20948;-76
2023/04/24 03:35:11;;;;;;;3.50;1.33;;;11.10;86.80;;;;;;5032940;28;20181;-73
2023/04/24 03:37:36;;;;;;;2.37;1.13;;;11.10;86.80;;;;;;5049503;28;20209;-75
2023/04/24 03:40:03;;;;;;;3.87;1.43;;;11.10;86.60;;;;;;5051387;28;20191;-74
2023/04/24 03:42:28;;;;;;;2.37;1.47;;;11.10;86.80;;;;;;5050725;28;20672;-75
2023/04/24 03:44:54;;;;;;;1.30;1.00;;;11.20;86.80;;;;;;5051389;28;20422;-73
2023/04/24 03:47:19;;;;;;;1.77;1.20;;;11.20;86.80;;;;;;5051856;28;20262;-74
2023/04/24 03:49:45;;;;;;;1.83;1.30;;;11.20;86.50;;;;;;5055614;28;20192;-75
2023/04/24 03:52:11;;;;;;;1.90;1.40;;;11.20;86.60;;;;;;5037347;28;20259;-74
2023/04/24 03:54:36;;;;;;;1.50;1.20;;;11.10;86.30;;;;;;5054774;28;20185;-75
2023/04/24 03:57:04;;;;;;;2.10;1.43;;;11.10;86.30;;;;;;5052408;28;20250;-76
2023/04/24 03:59:49;;;;;;;2.30;1.17;;;11.10;86.20;;;;;;5051867;28;20237;-74
2023/04/24 04:02:15;;;;;;;1.37;1.00;;;11.10;86.00;;;;;;5032869;28;20458;-75
2023/04/24 04:04:41;;;;;;;1.63;1.27;;;11.10;85.70;;;;;;5035323;28;20511;-77
2023/04/24 04:07:07;;;;;;;3.53;1.00;;;11.10;85.70;;;;;;5036789;28;20217;-75
2023/04/24 04:09:32;;;;;;;1.40;1.13;;;11.10;85.90;;;;;;5035839;28;20189;-76
2023/04/24 04:11:58;;;;;;;2.13;1.10;;;11.10;85.70;;;;;;5039444;28;20518;-76
2023/04/24 04:14:24;;;;;;;1.93;1.10;;;11.20;85.50;;;;;;5046655;28;20242;-75
2023/04/24 04:16:50;;;;;;;1.90;1.30;;;11.10;85.30;;;;;;5047998;28;20193;-75
2023/04/24 04:19:15;;;;;;;6.23;1.00;;;11.20;85.20;;;;;;5043214;28;20212;-76
2023/04/24 04:21:41;;;;;;;4.33;0.93;;;11.20;84.60;;;;;;5026482;28;20259;-76
2023/04/24 04:24:07;;;;;;;3.37;1.40;;;11.30;84.60;;;;;;5033954;28;20177;-75
2023/04/24 04:26:33;;;;;;;2.53;1.30;;;11.40;84.10;;;;;;5032465;28;20279;-77
2023/04/24 04:29:00;;;;;;;3.30;1.20;;;11.30;84.90;;;;;;5010420;28;20217;-76
2023/04/24 04:31:26;;;;;;;3.03;1.40;;;11.30;85.70;;;;;;5031739;28;20466;-76
2023/04/24 04:33:51;;;;;;;2.60;1.13;;;11.40;86.80;;;;;;5030886;28;20427;-75
2023/04/24 04:36:17;;;;;;;2.20;1.23;;;11.30;87.00;;;;;;5053894;28;20704;-76
2023/04/24 04:38:44;;;;;;;2.30;1.40;;;11.10;87.70;;;;;;5050194;28;20905;-76
2023/04/24 04:41:10;;;;;;;3.10;1.30;;;10.90;87.40;;;;;;5054065;28;20176;-76
2023/04/24 04:43:36;;;;;;;2.17;1.50;;;10.80;85.70;;;;;;5053743;28;20883;-76
2023/04/24 04:46:03;;;;;;;2.80;1.50;;;10.60;85.00;;;;;;5053386;28;20517;-76
2023/04/24 04:48:31;;;;;;;2.10;1.27;;;10.40;84.00;;;;;;5051681;28;20691;-76
2023/04/24 04:50:57;;;;;;;2.67;1.57;;;10.20;83.70;;;;;;5053948;28;20462;-75
2023/04/24 04:53:23;;;;;;;2.20;1.67;;;10.10;84.70;;;;;;5053522;28;20481;-74
2023/04/24 04:55:49;;;;;;;2.33;1.60;;;10.10;85.60;;;;;;5052934;28;20419;-75
2023/04/24 04:58:14;;;;;;;3.53;1.60;;;10.00;85.50;;;;;;5050326;28;20204;-75
2023/04/24 05:00:41;;;;;;;3.07;2.00;;;10.00;86.50;;;;;;5053173;28;20185;-75
2023/04/24 05:03:07;;;;;;;2.30;1.50;;;10.10;86.50;;;;;;5053175;28;20276;-75
2023/04/24 05:05:32;;;;;;;1.83;1.27;;;10.10;85.70;;;;;;5052503;28;20506;-74
2023/04/24 05:07:58;;;;;;;2.80;1.80;;;10.10;85.50;;;;;;5052216;28;20258;-76
2023/04/24 05:10:23;;;;;;;3.30;1.50;;;10.10;85.70;;;;;;5056310;28;20222;-77
2023/04/24 05:12:49;;;;;;;3.30;1.80;;;10.20;86.20;;;;;;5052754;28;20176;-75
2023/04/24 05:15:15;;;;;;;5.20;1.70;;;10.20;85.60;;;;;;5052839;28;20177;-76
2023/04/24 05:17:40;;;;;;;5.53;1.60;;;10.10;86.00;;;;;;5051396;28;20546;-75
2023/04/24 05:20:07;;;;;;;2.63;1.60;;;10.20;85.90;;;;;;5053138;28;20679;-75
2023/04/24 05:22:32;;;;;;;3.30;1.90;;;10.10;86.00;;;;;;5053285;28;20189;-76
2023/04/24 05:24:58;;;;;;;1.77;1.50;;;10.10;85.70;;;;;;5053753;28;20481;-75
2023/04/24 05:27:24;;;;;;;4.23;2.20;;;10.10;85.00;;;;;;5047753;28;20201;-75
2023/04/24 05:29:50;;;;;;;3.30;1.97;;;10.10;84.60;;;;;;5035903;28;20256;-73
2023/04/24 05:32:15;;;;;;;4.60;2.23;;;10.10;85.20;;;;;;5053299;28;20478;-75
2023/04/24 05:34:41;;;;;;;3.10;1.73;;;10.20;85.30;;;;;;5052138;28;20199;-74
2023/04/24 05:37:09;;;;;;;9.93;2.90;;;10.20;84.40;;;;;;5050776;28;20656;-74
2023/04/24 05:39:35;;;;;;;4.60;2.30;;;10.20;84.90;;;;;;5050467;28;20784;-74
2023/04/24 05:42:01;;;;;;;4.17;2.60;;;10.20;84.40;;;;;;5053392;28;20410;-74
2023/04/24 05:44:27;;;;;;;2.90;2.07;;;10.20;84.60;;;;;;5052934;28;20434;-73
2023/04/24 05:46:53;;;;;;;3.50;1.90;;;10.20;84.10;;;;;;5052842;28;20418;-74
2023/04/24 05:49:18;;;;;;;5.37;2.23;;;10.30;84.30;;;;;;5053322;28;20665;-73
2023/04/24 05:51:44;;;;;;;3.30;2.40;;;10.30;84.30;;;;;;5055196;28;20278;-75
2023/04/24 05:54:11;;;;;;;3.30;2.30;;;10.20;84.10;;;;;;5053375;28;20196;-74
2023/04/24 05:56:37;;;;;;;3.73;2.03;;;10.20;84.10;;;;;;5053417;28;20450;-74
2023/04/24 05:59:03;;;;;;;2.50;2.00;;;10.30;84.00;;;;;;5034311;28;20486;-75
2023/04/24 06:01:29;;;;;;;3.53;2.17;;;10.30;84.10;;;;;;5052635;28;20431;-75
2023/04/24 06:03:55;;;;;;;4.67;1.70;;;10.30;83.70;;;;;;5053101;28;20176;-75
2023/04/24 06:06:20;;;;;;;3.93;2.00;;;10.40;83.60;;;;;;5052722;28;20472;-75
2023/04/24 06:08:46;;;;;;;2.63;1.70;;;10.40;83.10;;;;;;5051819;28;20200;-74
2023/04/24 06:11:12;;;;;;;5.23;2.07;;;10.30;83.00;;;;;;5059788;28;20610;-76
2023/04/24 06:13:37;;;;;;;4.70;2.10;;;10.30;83.10;;;;;;5061134;28;20183;-76
2023/04/24 06:16:03;;;;;;;2.67;2.00;;;10.40;83.10;;;;;;5042437;28;20194;-74
2023/04/24 06:18:28;;;;;;;4.17;2.40;;;10.40;82.50;;;;;;5054142;28;20580;-75
2023/04/24 06:20:55;;;;;;;3.23;1.90;;;10.40;81.70;;;;;;5052789;28;20216;-76
2023/04/24 06:23:21;;;;;;;3.60;2.40;;;10.40;81.80;;;;;;5052543;28;20187;-75
2023/04/24 06:25:46;;;;;;;2.70;1.90;;;10.40;81.50;;;;;;5049411;28;20508;-75
2023/04/24 06:28:12;;;;;;;3.00;2.17;;;10.50;81.40;;;;;;5047589;28;20833;-76
2023/04/24 06:30:38;;;;;;;3.83;2.20;;;10.60;81.40;;;;;;5052030;28;20227;-75
2023/04/24 06:33:04;;;;;;;4.03;2.27;;;10.70;80.90;;;;;;5057568;28;20469;-75
2023/04/24 06:35:29;;;;;;;4.20;2.33;;;10.80;80.80;;;;;;5056748;28;20184;-76
2023/04/24 06:37:56;;;;;;;3.23;2.17;;;10.90;80.00;;;;;;5052883;28;20200;-74
2023/04/24 06:40:21;;;;;;;2.80;2.00;;;11.00;80.00;;;;;;5058637;28;20187;-77
2023/04/24 06:42:47;;;;;;;3.03;2.07;;;11.10;79.90;;;;;;5054623;28;20435;-76
2023/04/24 06:45:13;;;;;;;4.73;2.30;;;11.10;78.30;;;;;;5056870;28;20613;-74
2023/04/24 06:47:38;;;;;;;4.07;2.50;;;11.20;77.80;;;;;;5052855;28;20236;-75
2023/04/24 06:50:05;;;;;;;6.57;2.67;;;11.30;77.70;;;;;;5040008;28;20188;-75
2023/04/24 06:52:33;;;;;;;5.20;2.47;;;11.40;77.10;;;;;;5056448;28;20238;-74
2023/04/24 06:55:03;;;;;;;2.63;2.17;;;11.40;76.10;;;;;;5047757;28;20415;-73
2023/04/24 06:57:29;;;;;;;3.60;2.40;;;11.40;75.50;;;;;;5048674;28;20459;-75
2023/04/24 06:59:55;;;;;;;4.33;2.37;;;11.50;75.20;;;;;;5060846;28;20415;-77
2023/04/24 07:02:21;;;;;;;4.90;2.47;;;11.70;75.10;;;;;;5060054;28;20419;-73
2023/04/24 07:04:47;;;;;;;4.90;2.70;;;11.80;73.70;;;;;;5058226;28;20877;-75
2023/04/24 07:07:14;;;;;;;3.97;2.67;;;11.80;73.20;;;;;;5048344;28;21363;-76
2023/04/24 07:09:42;;;;;;;3.83;2.63;;;11.80;72.70;;;;;;5051317;28;20418;-75
2023/04/24 07:12:08;;;;;;;4.70;2.33;;;11.90;72.60;;;;;;5052177;28;20500;-75
2023/04/24 07:14:34;;;;;;;3.20;2.23;;;12.00;72.60;;;;;;5052167;28;20429;-74
2023/04/24 07:17:01;;;;;;;6.10;2.83;;;12.00;72.30;;;;;;5052232;28;20959;-75
2023/04/24 07:19:26;;;;;;;5.67;2.30;;;11.90;72.10;;;;;;5053505;28;20778;-74
2023/04/24 07:21:53;;;;;;;2.20;2.00;;;11.90;73.00;;;;;;5058546;28;20426;-75
2023/04/24 07:24:19;;;;;;;3.67;2.20;;;11.90;72.90;;;;;;5057624;28;20181;-76
2023/04/24 07:26:46;;;;;;;3.43;2.43;;;11.80;72.90;;;;;;5061457;28;20454;-75
2023/04/24 07:29:12;;;;;;;2.63;1.90;;;11.80;72.40;;;;;;5059378;28;20191;-76
2023/04/24 07:31:38;;;;;;;3.87;2.30;;;11.90;72.10;;;;;;5061074;28;21066;-77
2023/04/24 07:34:04;;;;;;;2.60;1.93;;;12.00;69.80;;;;;;5061608;28;20476;-75
2023/04/24 07:36:29;;;;;;;4.63;2.20;;;11.90;68.90;;;;;;5057950;28;20212;-74
2023/04/24 07:38:56;;;;;;;3.53;1.93;;;12.00;69.10;;;;;;5052925;28;20208;-77
2023/04/24 07:41:23;;;;;;;2.07;1.63;;;12.00;67.90;;;;;;5055067;28;20551;-75
2023/04/24 07:43:49;;;;;;;3.60;2.10;;;12.10;68.80;;;;;;5054923;28;20431;-75
2023/04/24 07:46:15;;;;;;;2.93;1.90;;;12.30;68.20;;;;;;5055024;28;20426;-75
2023/04/24 07:48:41;;;;;;;4.20;2.17;;;12.30;67.30;;;;;;5050662;28;20208;-76
2023/04/24 07:51:06;;;;;;;3.07;2.00;;;12.40;67.90;;;;;;5054795;28;20196;-75
2023/04/24 07:53:32;;;;;;;7.43;2.80;;;12.60;68.80;;;;;;5036562;28;20188;-76
2023/04/24 07:55:57;;;;;;;4.10;1.70;;;12.80;68.00;;;;;;5054258;28;20218;-76
2023/04/24 07:58:23;;;;;;;3.13;2.13;;;13.00;68.20;;;;;;5050812;28;20265;-76
2023/04/24 08:00:49;;;;;;;2.60;2.10;;;13.00;66.00;;;;;;5056523;28;20241;-74
2023/04/24 08:03:18;;;;;;;2.03;1.67;;;12.90;65.70;;;;;;5056509;28;20183;-76
2023/04/24 08:05:43;;;;;;;1.80;1.50;;;12.90;65.40;;;;;;5054403;28;20184;-76
2023/04/24 08:08:09;;;;;;;3.80;1.80;;;12.90;66.00;;;;;;5052666;28;21106;-75
2023/04/24 08:10:34;;;;;;;4.90;1.97;;;12.80;65.40;;;;;;5036333;28;20204;-76
2023/04/24 08:13:00;;;;;;;2.83;2.07;;;12.70;65.10;;;;;;5056352;28;20185;-75
2023/04/24 08:15:27;;;;;;;3.20;1.80;;;12.60;65.40;;;;;;5057856;28;20176;-77
2023/04/24 08:17:52;;;;;;;4.03;2.27;;;12.50;65.10;;;;;;5053015;28;20285;-74
2023/04/24 08:20:18;;;;;;;3.37;1.90;;;12.50;65.70;;;;;;5059098;28;20438;-76
2023/04/24 08:22:44;;;;;;;3.93;2.07;;;12.40;65.60;;;;;;5058249;28;20181;-76
2023/04/24 08:25:10;;;;;;;3.23;1.90;;;12.50;65.80;;;;;;5057216;28;20199;-75
2023/04/24 08:27:36;;;;;;;3.57;2.23;;;12.50;65.60;;;;;;5051475;28;20555;-75
2023/04/24 08:30:04;;;;;;;4.77;1.90;;;12.50;65.60;;;;;;5055527;28;20453;-75
2023/04/24 08:32:30;;;;;;;7.60;2.10;;;12.50;66.00;;;;;;5053241;28;20423;-75
2023/04/24 08:34:59;;;;;;;5.47;2.07;;;12.30;65.10;;;;;;5056188;28;20426;-75
2023/04/24 08:37:26;;;;;;;3.20;1.90;;;12.30;65.40;;;;;;5050878;28;20232;-75
2023/04/24 08:39:52;;;;;;;3.50;2.57;;;12.40;65.30;;;;;;5037743;28;20925;-75
2023/04/24 08:42:19;;;;;;;4.10;2.07;;;12.50;65.70;;;;;;5053599;28;20958;-75
2023/04/24 08:44:44;;;;;;;3.50;2.30;;;12.60;65.00;;;;;;5054007;28;20446;-75
2023/04/24 08:47:14;;;;;;;4.03;2.03;;;12.60;64.50;;;;;;5051918;28;20458;-75
2023/04/24 08:49:40;;;;;;;4.60;2.30;;;12.50;64.80;;;;;;5053498;28;20177;-77
2023/04/24 08:52:06;;;;;;;4.50;2.30;;;12.40;65.70;;;;;;5053797;28;20589;-76
2023/04/24 08:54:34;;;;;;;3.23;2.07;;;12.40;66.10;;;;;;5053460;28;20176;-76
2023/04/24 08:57:01;;;;;;;2.73;1.80;;;12.30;67.30;;;;;;5051847;28;20787;-75
2023/04/24 08:59:28;;;;;;;5.67;2.20;;;12.30;67.70;;;;;;5053590;28;20423;-76
2023/04/24 09:01:55;;;;;;;3.80;2.10;;;12.30;67.50;;;;;;5047736;28;20505;-75
2023/04/24 09:04:24;;;;;;;5.03;2.20;;;12.40;67.20;;;;;;5054325;28;20426;-75
2023/04/24 09:06:56;;;;;;;3.63;1.97;;;12.50;67.20;;;;;;5048007;28;20433;-73
2023/04/24 09:09:28;;;;;;;3.30;2.50;;;12.50;66.90;;;;;;5053571;28;20423;-75
2023/04/24 09:11:55;;;;;;;3.53;2.30;;;12.20;67.00;;;;;;5035759;28;20531;-76
2023/04/24 09:14:22;;;;;;;3.10;2.10;;;12.10;67.50;;;;;;5053992;28;20454;-75
2023/04/24 09:16:48;;;;;;;6.63;2.50;;;12.00;68.20;;;;;;5050298;28;20419;-77
2023/04/24 09:19:14;;;;;;;3.60;2.13;;;12.00;68.30;;;;;;5053032;28;20427;-76
2023/04/24 09:21:41;;;;;;;3.23;2.17;;;12.00;68.90;;;;;;5053006;28;20188;-75
2023/04/24 09:24:14;;;;;;;5.00;2.13;;;11.90;69.70;;;;;;5048272;28;20184;-73
2023/04/24 09:26:40;;;;;;;3.77;2.57;;;12.00;70.20;;;;;;5054113;28;20415;-76
2023/04/24 09:29:05;;;;;;;7.67;2.83;;;11.50;69.90;;;;;;5051136;28;20466;-76
2023/04/24 09:31:31;;;;;;;4.20;2.43;;;11.40;71.30;;;;;;5035086;28;20470;-76
2023/04/24 09:34:08;;;;;;;4.20;2.53;;;11.40;71.60;;;;;;5055806;28;20176;-75
2023/04/24 09:36:38;;;;;;;4.60;1.93;;;11.40;72.10;;;;;;5057776;28;20195;-76
2023/04/24 09:39:07;;;;;;;3.30;2.20;;;11.50;72.40;;;;;;5052145;28;20508;-75
2023/04/24 09:41:33;;;;;;;4.00;2.77;;;11.50;72.10;;;;;;5040286;28;20480;-75
2023/04/24 09:44:21;;;;;;;3.03;1.80;;;11.50;71.80;;;;;;5061636;28;20466;-73
2023/04/24 09:46:52;;;;;;;5.50;2.20;;;11.40;72.40;;;;;;5058394;28;20189;-74
2023/04/24 09:49:29;;;;;;;3.90;2.13;;;11.40;70.70;;;;;;5063634;28;20431;-76
2023/04/24 09:52:10;;;;;;;3.33;2.03;;;11.90;71.10;;;;;;5044715;28;20462;-75
2023/04/24 09:54:39;;;;;;;4.33;2.30;;;12.00;68.90;;;;;;5053518;28;20930;-76
2023/04/24 09:57:07;;;;;;;3.07;2.00;;;12.00;68.50;;;;;;5032336;28;20864;-76
2023/04/24 09:59:32;;;;;;;4.37;2.17;;;12.10;68.30;;;;;;5052407;28;20416;-75
2023/04/24 10:01:59;;;;;;;4.43;2.20;;;12.30;67.60;;;;;;5052173;28;21021;-75
2023/04/24 10:04:27;;;;;;;3.43;2.07;;;12.30;67.20;;;;;;5051731;28;20188;-75
2023/04/24 10:06:55;;;;;;;3.47;1.80;;;12.00;66.40;;;;;;5051003;28;20426;-76
2023/04/24 10:09:26;;;;;;;1.80;1.50;;;12.10;66.60;;;;;;5052235;28;20427;-76
2023/04/24 10:11:53;;;;;;;2.30;1.53;;;12.20;64.10;;;;;;5033524;28;20542;-76
2023/04/24 10:14:23;;;;;;;2.37;1.50;;;12.10;64.50;;;;;;5051976;28;20419;-75
2023/04/24 10:16:52;;;;;;;2.70;1.60;;;11.80;62.80;;;;;;5050726;28;20633;-74
2023/04/24 10:19:18;;;;;;;2.70;1.87;;;11.70;63.20;;;;;;5045820;28;20465;-75
2023/04/24 10:21:47;;;;;;;4.07;1.43;;;11.80;61.70;;;;;;5052162;28;20415;-76
2023/04/24 10:24:17;;;;;;;2.73;1.60;;;12.00;61.20;;;;;;5052524;28;20415;-75
2023/04/24 10:26:44;;;;;;;2.90;1.60;;;12.20;60.60;;;;;;5051645;28;20517;-76
2023/04/24 10:29:12;;;;;;;2.00;1.70;;;12.40;59.70;;;;;;5046673;28;20782;-74
2023/04/24 10:31:39;;;;;;;2.77;1.60;;;12.80;58.80;;;;;;5051012;28;20486;-76
2023/04/24 10:34:06;;;;;;;4.13;1.97;;;13.30;57.80;;;;;;5051862;28;20903;-76
2023/04/24 10:36:33;;;;;;;3.03;1.50;;;13.70;56.80;;;;;;5051746;28;20509;-75
2023/04/24 10:39:02;;;;;;;3.27;2.00;;;13.60;56.00;;;;;;5047348;28;20450;-76
2023/04/24 10:41:30;;;;;;;2.80;2.00;;;13.60;56.00;;;;;;5051502;28;20831;-75
2023/04/24 10:44:13;;;;;;;4.63;1.90;;;13.40;56.80;;;;;;5051680;28;20438;-76
2023/04/24 10:46:42;;;;;;;2.47;1.97;;;13.20;58.00;;;;;;5050813;28;20412;-76
2023/04/24 10:49:08;;;;;;;2.50;1.60;;;13.00;58.80;;;;;;5048049;28;20564;-75
2023/04/24 10:51:49;;;;;;;6.40;1.90;;;12.90;59.70;;;;;;5057410;28;20463;-76
2023/04/24 10:54:29;;;;;;;1.77;1.40;;;12.90;59.60;;;;;;5055957;28;20411;-76
2023/04/24 10:57:20;;;;;;;2.73;1.80;;;12.90;60.00;;;;;;5027022;28;20419;-75
2023/04/24 10:59:47;;;;;;;3.43;1.70;;;12.80;60.10;;;;;;5051217;28;20415;-76
2023/04/24 11:02:16;;;;;;;6.43;1.80;;;12.60;60.90;;;;;;5055198;28;20827;-75
2023/04/24 11:04:46;;;;;;;2.87;1.90;;;12.70;61.30;;;;;;5056168;28;20423;-76
2023/04/24 11:07:12;;;;;;;3.27;2.00;;;12.80;61.50;;;;;;5045592;28;20454;-76
2023/04/24 11:09:40;;;;;;;6.13;2.50;;;12.50;61.70;;;;;;5052744;28;20415;-75
2023/04/24 11:12:15;;;;;;;2.50;1.60;;;12.50;62.50;;;;;;5035834;28;20492;-77
2023/04/24 11:14:56;;;;;;;2.33;1.67;;;12.60;62.50;;;;;;5050408;28;20417;-77
2023/04/24 11:17:40;;;;;;;2.73;1.90;;;12.70;62.60;;;;;;5047896;28;20510;-75
2023/04/24 11:20:11;;;;;;;3.90;2.07;;;12.80;62.00;;;;;;5032809;28;21002;-75
2023/04/24 11:22:41;;;;;;;3.17;1.93;;;12.90;61.20;;;;;;5033408;28;20930;-76
2023/04/24 11:25:08;;;;;;;4.77;2.13;;;13.00;60.60;;;;;;5051306;28;20423;-75
2023/04/24 11:27:48;;;;;;;5.20;1.80;;;12.80;60.30;;;;;;5031656;28;20454;-76
2023/04/24 11:30:18;;;;;;;3.27;2.23;;;12.90;60.30;;;;;;5033257;28;20423;-75
2023/04/24 11:32:49;;;;;;;3.53;2.17;;;13.20;60.10;;;;;;5051302;28;20430;-75
2023/04/24 11:35:24;;;;;;;3.20;1.90;;;13.90;59.50;;;;;;5029301;28;20419;-75
2023/04/24 11:37:52;;;;;;;3.53;2.00;;;14.30;56.60;;;;;;5046053;28;20455;-75
2023/04/24 11:40:29;;;;;;;2.87;1.87;;;14.50;56.50;;;;;;5033111;28;20428;-76
2023/04/24 11:42:55;;;;;;;4.33;2.07;;;14.60;56.10;;;;;;5048377;28;20435;-75
2023/04/24 11:45:26;;;;;;;3.40;1.70;;;14.30;56.10;;;;;;5050876;28;20429;-76
2023/04/24 11:47:52;;;;;;;2.63;1.60;;;13.70;57.80;;;;;;5044105;28;20201;-74
2023/04/24 11:50:22;;;;;;;2.97;1.80;;;13.10;59.90;;;;;;5050693;28;20756;-75
2023/04/24 11:52:49;;;;;;;2.90;1.90;;;13.00;60.70;;;;;;5046949;28;20185;-74
2023/04/24 11:55:15;;;;;;;2.77;1.67;;;12.70;61.30;;;;;;5051621;28;20415;-76
2023/04/24 11:57:44;;;;;;;3.40;2.00;;;12.40;62.60;;;;;;5048451;28;20515;-75
2023/04/24 12:00:16;;;;;;;2.43;1.80;;;12.60;62.90;;;;;;5051622;28;20660;-75
2023/04/24 12:02:42;;;;;;;2.23;1.80;;;12.40;64.20;;;;;;5051116;28;20415;-75
2023/04/24 12:05:08;;;;;;;2.40;1.70;;;12.70;63.90;;;;;;5033159;28;20429;-75
2023/04/24 12:07:43;;;;;;;3.93;1.87;;;12.80;62.90;;;;;;5048426;28;20219;-75
2023/04/24 12:10:09;;;;;;;3.50;1.93;;;12.90;62.20;;;;;;5056241;28;20841;-75
2023/04/24 12:12:34;;;;;;;5.27;1.60;;;13.00;61.50;;;;;;5061310;28;20419;-74
2023/04/24 12:15:01;;;;;;;3.37;1.90;;;13.10;60.90;;;;;;5070013;28;20183;-74
2023/04/24 12:17:32;;;;;;;2.63;1.87;;;12.90;60.10;;;;;;5036845;28;20688;-75
2023/04/24 12:20:03;;;;;;;3.10;2.00;;;12.50;61.20;;;;;;5062247;28;20419;-74
2023/04/24 12:22:44;;;;;;;5.00;2.47;;;12.50;62.30;;;;;;5062951;28;20419;-75
2023/04/24 12:25:13;;;;;;;2.30;1.80;;;12.70;62.20;;;;;;5043808;28;20403;-75
2023/04/24 12:27:38;;;;;;;4.37;2.40;;;12.70;62.30;;;;;;5054858;28;20476;-75
2023/04/24 12:30:15;;;;;;;2.70;1.87;;;12.60;61.70;;;;;;5058991;28;21080;-75
2023/04/24 12:32:42;;;;;;;3.77;2.00;;;12.50;61.60;;;;;;5043777;28;20231;-74
2023/04/24 12:35:08;;;;;;;2.40;1.90;;;12.70;61.20;;;;;;5060789;28;20445;-74
2023/04/24 12:37:39;;;;;;;4.60;2.00;;;12.70;60.90;;;;;;5058682;28;20455;-75
2023/04/24 12:40:09;;;;;;;3.77;1.90;;;12.80;60.10;;;;;;5058395;28;20407;-75
2023/04/24 12:42:36;;;;;;;5.23;2.33;;;12.90;60.10;;;;;;5057909;28;20422;-75
2023/04/24 12:45:06;;;;;;;4.70;2.43;;;12.70;60.60;;;;;;5057956;28;20465;-77
2023/04/24 12:47:33;;;;;;;4.30;2.20;;;12.90;59.70;;;;;;5050061;28;20459;-76